Time;durP1;ratioP1;P1;durP2;ratioP2;P2;SDS_P1;SDS_P2;PMS_P1;PMS_P2;Temp;Humidity;BMP_temperature;BMP_pressure;BME280_temperature;BME280_humidity;BME280_pressure;Samples;Min_cycle;Max_cycle;Signal;HPM_P1;HPM_P2
2022/04/21 00:01:42;;;;;;;2.97;2.13;;;23.40;34.60;;;;;;4994306;28;20600;-68
2022/04/21 00:04:08;;;;;;;3.07;2.13;;;23.50;34.70;;;;;;4995136;28;20863;-67
2022/04/21 00:06:34;;;;;;;3.30;2.17;;;23.40;34.20;;;;;;4993729;28;20395;-68
2022/04/21 00:08:59;;;;;;;2.50;1.80;;;23.40;33.90;;;;;;4995651;28;20407;-67
2022/04/21 00:11:25;;;;;;;3.67;2.08;;;23.40;34.20;;;;;;4995101;28;20537;-68
2022/04/21 00:13:50;;;;;;;3.23;2.30;;;23.40;34.50;;;;;;4995056;28;20390;-68
2022/04/21 00:16:16;;;;;;;2.75;2.08;;;23.40;34.70;;;;;;4994997;28;20387;-67
2022/04/21 00:18:42;;;;;;;3.50;2.20;;;23.40;34.80;;;;;;4995457;28;20406;-67
2022/04/21 00:21:08;;;;;;;3.05;1.90;;;23.30;34.70;;;;;;4995238;28;20389;-68
2022/04/21 00:23:34;;;;;;;2.38;1.90;;;23.40;34.10;;;;;;4995117;28;20473;-68
2022/04/21 00:26:01;;;;;;;3.77;2.30;;;23.30;34.00;;;;;;4993281;28;20395;-68
2022/04/21 00:28:28;;;;;;;4.18;2.28;;;23.30;34.30;;;;;;4994986;28;20390;-68
2022/04/21 00:30:54;;;;;;;2.47;2.13;;;23.30;34.60;;;;;;4994064;28;20457;-68
2022/04/21 00:33:21;;;;;;;3.13;2.10;;;23.30;34.50;;;;;;4994998;28;20387;-68
2022/04/21 00:35:47;;;;;;;2.70;2.00;;;23.30;34.50;;;;;;4993744;28;20399;-68
2022/04/21 00:38:13;;;;;;;2.55;2.30;;;23.30;34.00;;;;;;4993198;28;20547;-67
2022/04/21 00:40:39;;;;;;;2.88;2.03;;;23.30;34.00;;;;;;4993555;28;20474;-68
2022/04/21 00:43:05;;;;;;;3.75;1.88;;;23.30;34.30;;;;;;4994509;28;20449;-68
2022/04/21 00:45:32;;;;;;;3.00;2.20;;;23.30;34.30;;;;;;4993676;28;20759;-68
2022/04/21 00:48:00;;;;;;;2.33;1.90;;;23.30;34.90;;;;;;4993343;28;20390;-68
2022/04/21 00:50:34;;;;;;;2.30;1.83;;;23.40;34.20;;;;;;4994625;28;20894;-68
2022/04/21 00:53:02;;;;;;;2.92;1.95;;;23.40;34.20;;;;;;4992603;28;20426;-68
2022/04/21 00:55:30;;;;;;;3.40;1.97;;;23.40;34.20;;;;;;4994284;28;20449;-67
2022/04/21 00:57:56;;;;;;;2.90;1.90;;;23.40;34.20;;;;;;4994191;28;20410;-68
2022/04/21 01:00:22;;;;;;;2.33;2.00;;;23.50;34.20;;;;;;4994610;28;20442;-65
2022/04/21 01:02:52;;;;;;;2.97;1.80;;;23.40;34.20;;;;;;4994209;28;20453;-68
2022/04/21 01:05:31;;;;;;;2.78;1.90;;;23.50;34.20;;;;;;4994577;28;20426;-68
2022/04/21 01:08:07;;;;;;;3.67;2.00;;;23.40;34.10;;;;;;4994233;28;20375;-67
2022/04/21 01:10:35;;;;;;;3.05;2.00;;;23.40;34.10;;;;;;4994046;28;20407;-67
2022/04/21 01:13:04;;;;;;;2.75;2.13;;;23.50;34.40;;;;;;4994366;28;20867;-68
2022/04/21 01:15:30;;;;;;;2.30;2.10;;;23.50;34.10;;;;;;4994263;28;20390;-67
2022/04/21 01:17:56;;;;;;;2.40;1.90;;;23.50;34.00;;;;;;4994575;28;20448;-67
2022/04/21 01:20:22;;;;;;;3.28;2.00;;;23.50;34.00;;;;;;4992667;28;20398;-68
2022/04/21 01:22:49;;;;;;;2.55;1.75;;;23.50;34.00;;;;;;4994233;28;20386;-68
2022/04/21 01:25:15;;;;;;;3.20;2.00;;;23.50;33.90;;;;;;4992917;28;20417;-68
2022/04/21 01:27:41;;;;;;;2.87;1.90;;;23.50;33.90;;;;;;4992881;28;20471;-68
2022/04/21 01:30:09;;;;;;;2.97;1.83;;;23.50;33.90;;;;;;4992416;28;20535;-68
2022/04/21 01:32:39;;;;;;;2.83;1.98;;;23.50;33.80;;;;;;4993853;28;20398;-68
2022/04/21 01:35:06;;;;;;;3.22;1.92;;;23.40;33.80;;;;;;4993863;28;20890;-67
2022/04/21 01:43:01;;;;;;;3.00;1.95;;;23.40;33.70;;;;;;4993836;28;20894;-68
2022/04/21 01:45:27;;;;;;;2.40;1.90;;;23.40;33.70;;;;;;4993672;28;20394;-68
2022/04/21 01:47:54;;;;;;;2.35;1.80;;;23.40;33.70;;;;;;4993445;28;20831;-68
2022/04/21 01:50:19;;;;;;;2.80;1.90;;;23.40;33.70;;;;;;4991737;28;20410;-68
2022/04/21 01:52:45;;;;;;;2.38;2.00;;;23.50;33.80;;;;;;4992998;28;20410;-68
2022/04/21 01:55:11;;;;;;;2.47;2.00;;;23.40;33.70;;;;;;4993639;28;20493;-68
2022/04/21 01:57:37;;;;;;;2.17;1.80;;;23.40;33.70;;;;;;4993585;28;20806;-68
2022/04/21 02:00:04;;;;;;;3.67;1.97;;;23.40;33.70;;;;;;4991832;28;20478;-68
2022/04/21 02:02:30;;;;;;;2.78;2.05;;;23.40;33.70;;;;;;4993360;28;20426;-67
2022/04/21 02:04:56;;;;;;;2.75;2.05;;;23.40;33.60;;;;;;4992224;28;20406;-67
2022/04/21 02:07:24;;;;;;;2.20;1.90;;;23.40;33.60;;;;;;4993217;28;20402;-68
2022/04/21 02:09:50;;;;;;;3.05;2.08;;;23.40;33.60;;;;;;4991179;28;20398;-69
2022/04/21 02:12:15;;;;;;;3.13;2.00;;;23.40;33.60;;;;;;4992567;28;20792;-68
2022/04/21 02:14:41;;;;;;;3.00;1.98;;;23.40;33.60;;;;;;4992933;28;20403;-68
2022/04/21 02:17:07;;;;;;;2.20;1.77;;;23.40;33.60;;;;;;4992158;28;20395;-68
2022/04/21 02:19:33;;;;;;;2.67;2.00;;;23.40;33.60;;;;;;4991638;28;20414;-67
2022/04/21 02:21:58;;;;;;;2.57;1.77;;;23.40;33.60;;;;;;4991479;28;20406;-68
2022/04/21 02:24:24;;;;;;;2.97;1.92;;;23.40;33.60;;;;;;4992539;28;20413;-68
2022/04/21 02:26:50;;;;;;;2.60;1.90;;;23.40;33.60;;;;;;4993022;28;20398;-68
2022/04/21 02:29:16;;;;;;;3.00;1.90;;;23.40;33.50;;;;;;4992759;28;20399;-68
2022/04/21 02:31:41;;;;;;;2.37;1.80;;;23.40;34.10;;;;;;4991630;28;20418;-68
2022/04/21 02:34:07;;;;;;;2.40;1.90;;;23.40;33.50;;;;;;4990892;28;20398;-67
2022/04/21 02:36:32;;;;;;;2.60;1.60;;;23.40;33.50;;;;;;4992687;28;20465;-68
2022/04/21 02:38:58;;;;;;;2.40;1.73;;;23.40;33.40;;;;;;4992354;28;20751;-68
2022/04/21 02:41:23;;;;;;;2.60;1.98;;;23.30;33.50;;;;;;4992270;28;20743;-68
2022/04/21 02:43:49;;;;;;;2.13;1.77;;;23.30;33.50;;;;;;4992561;28;20445;-68
2022/04/21 02:46:16;;;;;;;2.47;1.83;;;23.30;33.30;;;;;;4992037;28;20438;-68
2022/04/21 02:48:41;;;;;;;2.78;1.80;;;23.30;33.40;;;;;;4992522;28;20395;-68
2022/04/21 02:51:09;;;;;;;2.70;1.60;;;23.30;33.50;;;;;;4992430;28;20429;-67
2022/04/21 02:59:04;;;;;;;2.78;1.70;;;23.30;33.30;;;;;;4992768;28;20946;-68
2022/04/21 03:01:30;;;;;;;2.63;2.03;;;23.30;33.30;;;;;;4990790;28;20403;-67
2022/04/21 03:03:55;;;;;;;2.17;1.67;;;23.30;33.20;;;;;;4991648;28;20401;-65
2022/04/21 03:06:21;;;;;;;2.90;1.63;;;23.30;33.30;;;;;;4991603;28;20875;-66
2022/04/21 03:08:47;;;;;;;2.33;1.80;;;23.30;33.30;;;;;;4991101;28;20491;-68
2022/04/21 03:11:12;;;;;;;1.90;1.60;;;23.30;33.30;;;;;;4991836;28;20422;-68
2022/04/21 03:13:38;;;;;;;2.30;1.70;;;23.20;33.40;;;;;;4992186;28;20394;-68
2022/04/21 03:16:04;;;;;;;2.30;1.70;;;23.30;33.40;;;;;;4991984;28;20445;-67
2022/04/21 03:18:29;;;;;;;2.67;1.75;;;23.30;33.40;;;;;;4990847;28;20403;-68
2022/04/21 03:26:23;;;;;;;2.63;1.70;;;23.20;33.50;;;;;;4991961;28;20406;-67
2022/04/21 03:28:49;;;;;;;2.40;1.70;;;23.20;33.50;;;;;;4990705;28;20410;-68
2022/04/21 03:31:14;;;;;;;2.70;1.70;;;23.20;33.50;;;;;;4992049;28;20430;-68
2022/04/21 03:33:40;;;;;;;1.90;1.70;;;23.20;33.50;;;;;;4992190;28;20391;-68
2022/04/21 03:36:06;;;;;;;2.30;1.90;;;23.20;33.50;;;;;;4991494;28;20445;-68
2022/04/21 03:38:32;;;;;;;2.00;1.65;;;23.20;33.40;;;;;;4991898;28;20473;-68
2022/04/21 03:40:57;;;;;;;2.13;1.70;;;23.20;33.40;;;;;;4990692;28;20398;-68
2022/04/21 03:43:23;;;;;;;2.20;1.80;;;23.20;33.40;;;;;;4992322;28;20398;-68
2022/04/21 03:45:49;;;;;;;2.80;1.73;;;23.20;33.40;;;;;;4991828;28;20394;-67
2022/04/21 03:48:14;;;;;;;2.70;1.70;;;23.20;33.40;;;;;;4990175;28;20490;-67
2022/04/21 03:50:40;;;;;;;2.25;1.70;;;23.20;33.40;;;;;;4990256;28;20450;-68
2022/04/21 03:53:06;;;;;;;2.90;1.73;;;23.20;33.50;;;;;;4991890;28;20465;-67
2022/04/21 03:55:32;;;;;;;2.70;1.63;;;23.20;33.50;;;;;;4991294;28;20406;-68
2022/04/21 03:57:58;;;;;;;2.63;2.00;;;23.10;33.40;;;;;;4991672;28;20394;-68
2022/04/21 04:00:23;;;;;;;3.33;1.80;;;23.10;33.40;;;;;;4990235;28;20386;-68
2022/04/21 04:02:49;;;;;;;2.08;1.80;;;23.10;33.40;;;;;;4990512;28;20803;-67
2022/04/21 04:05:15;;;;;;;2.47;1.70;;;23.10;33.40;;;;;;4991918;28;20402;-66
2022/04/21 04:13:09;;;;;;;2.38;1.85;;;23.10;33.50;;;;;;4992113;28;20390;-68
2022/04/21 04:15:34;;;;;;;2.33;1.70;;;23.10;33.40;;;;;;4991729;28;20398;-69
2022/04/21 04:18:00;;;;;;;2.35;1.70;;;23.10;33.40;;;;;;4993847;28;20728;-67
2022/04/21 04:20:26;;;;;;;2.00;1.70;;;23.10;33.40;;;;;;4993798;28;20910;-68
2022/04/21 04:22:51;;;;;;;2.55;1.70;;;23.10;33.30;;;;;;4995223;28;20432;-69
2022/04/21 04:25:17;;;;;;;2.20;1.60;;;23.10;33.40;;;;;;4994579;28;20434;-68
2022/04/21 04:27:43;;;;;;;1.90;1.63;;;23.10;33.40;;;;;;4993622;28;20958;-68
2022/04/21 04:30:09;;;;;;;2.85;1.80;;;23.10;33.40;;;;;;4994611;28;20847;-67
2022/04/21 04:32:35;;;;;;;2.47;1.95;;;23.10;33.40;;;;;;4993877;28;20486;-68
2022/04/21 04:35:02;;;;;;;2.08;1.67;;;23.10;33.30;;;;;;4994952;28;20433;-68
2022/04/21 04:37:28;;;;;;;2.55;1.60;;;23.10;33.30;;;;;;4995002;28;20435;-67
2022/04/21 04:39:55;;;;;;;2.57;1.70;;;23.10;33.30;;;;;;4995033;28;20942;-68
2022/04/21 04:42:22;;;;;;;2.45;1.70;;;23.10;33.30;;;;;;4994488;28;20387;-67
2022/04/21 04:46:34;;;;;;;2.78;1.80;;;23.10;33.40;;;;;;4994930;28;20395;-68
2022/04/21 04:47:36;;;;;;;1.60;1.50;;;23.10;33.30;;;;;;4994924;28;20457;-68
2022/04/21 04:50:01;;;;;;;2.17;1.80;;;23.10;33.40;;;;;;4994521;28;20799;-66
2022/04/21 04:52:27;;;;;;;2.40;1.80;;;23.00;33.30;;;;;;4994447;28;20438;-65
2022/04/21 04:54:53;;;;;;;2.50;1.77;;;23.00;33.30;;;;;;4993455;28;20790;-67
2022/04/21 04:57:18;;;;;;;1.90;1.70;;;23.00;33.30;;;;;;4994646;28;20394;-68
2022/04/21 04:59:44;;;;;;;2.23;1.70;;;23.00;33.30;;;;;;4993238;28;20455;-64
2022/04/21 05:02:09;;;;;;;2.00;1.70;;;23.00;34.00;;;;;;4994281;28;20391;-66
2022/04/21 05:04:35;;;;;;;2.00;1.80;;;23.10;33.40;;;;;;4994394;28;20889;-68
2022/04/21 05:07:01;;;;;;;1.93;1.63;;;23.00;33.30;;;;;;4993448;28;20443;-68
2022/04/21 05:09:26;;;;;;;2.00;1.80;;;23.00;33.30;;;;;;4993154;28;20397;-69
2022/04/21 05:11:55;;;;;;;2.80;1.60;;;23.00;33.20;;;;;;4993328;28;20425;-67
2022/04/21 05:14:22;;;;;;;2.63;1.80;;;23.00;33.30;;;;;;4992949;28;20410;-68
2022/04/21 05:16:48;;;;;;;2.10;1.80;;;23.00;33.20;;;;;;4994080;28;20395;-68
2022/04/21 05:19:16;;;;;;;3.03;1.80;;;23.00;33.20;;;;;;4992861;28;20390;-69
2022/04/21 05:21:43;;;;;;;2.90;1.80;;;23.00;33.20;;;;;;4992772;28;20402;-69
2022/04/21 05:24:10;;;;;;;2.58;1.80;;;23.00;33.20;;;;;;4993940;28;20729;-66
2022/04/21 05:26:40;;;;;;;2.60;1.98;;;23.00;33.20;;;;;;4992660;28;20410;-69
2022/04/21 05:31:58;;;;;;;4.15;3.03;;;22.90;33.20;;;;;;4993932;28;20445;-68
2022/04/21 05:34:24;;;;;;;6.47;3.38;;;23.00;33.70;;;;;;4993589;28;20414;-65
2022/04/21 05:36:50;;;;;;;4.88;3.50;;;22.90;33.10;;;;;;4992607;28;20429;-68
2022/04/21 05:39:16;;;;;;;7.88;3.75;;;22.90;33.30;;;;;;4993327;28;20399;-67
2022/04/21 05:41:44;;;;;;;7.07;3.30;;;22.80;34.00;;;;;;4992872;28;20894;-68
2022/04/21 05:44:11;;;;;;;8.48;3.38;;;22.80;34.00;;;;;;4993600;28;20926;-68
2022/04/21 05:46:37;;;;;;;7.18;3.53;;;22.80;34.00;;;;;;4993034;28;20409;-68
2022/04/21 05:49:03;;;;;;;7.28;3.67;;;22.70;34.60;;;;;;4993610;28;20417;-67
2022/04/21 05:51:29;;;;;;;7.28;3.70;;;22.70;34.50;;;;;;4997988;28;20428;-68
2022/04/21 05:53:58;;;;;;;10.45;3.70;;;22.70;34.40;;;;;;5012560;28;20384;-67
2022/04/21 05:56:24;;;;;;;6.15;3.50;;;22.70;34.50;;;;;;5001757;28;20421;-68
2022/04/21 05:58:50;;;;;;;9.18;3.80;;;22.60;34.50;;;;;;5012976;28;20389;-68
2022/04/21 06:01:16;;;;;;;6.90;3.75;;;22.70;34.70;;;;;;5013027;28;20444;-67
2022/04/21 06:03:41;;;;;;;6.83;3.40;;;22.70;34.80;;;;;;5013223;28;20492;-67
2022/04/21 06:06:09;;;;;;;5.18;3.40;;;22.70;34.60;;;;;;5012389;28;20407;-67
2022/04/21 06:08:35;;;;;;;6.10;2.88;;;22.70;34.80;;;;;;5012362;28;20789;-68
2022/04/21 06:11:01;;;;;;;6.18;3.20;;;22.70;34.70;;;;;;5009083;28;20470;-67
2022/04/21 06:13:27;;;;;;;5.18;3.30;;;22.70;34.70;;;;;;5010666;28;20397;-68
2022/04/21 06:15:54;;;;;;;5.32;3.30;;;22.70;34.70;;;;;;5012647;28;20393;-67
2022/04/21 06:18:20;;;;;;;8.23;3.30;;;22.70;34.70;;;;;;5012101;28;20741;-67
2022/04/21 06:20:46;;;;;;;7.25;3.50;;;22.70;35.10;;;;;;5011214;28;20447;-67
2022/04/21 06:23:13;;;;;;;4.85;3.15;;;22.60;35.00;;;;;;5012340;28;20389;-66
2022/04/21 06:25:39;;;;;;;7.03;3.53;;;22.60;35.00;;;;;;5012027;28;20397;-67
2022/04/21 06:28:05;;;;;;;9.60;3.58;;;22.60;34.90;;;;;;5012321;28;20496;-67
2022/04/21 06:30:31;;;;;;;5.93;3.22;;;22.60;35.00;;;;;;5027316;28;20413;-66
2022/04/21 06:32:59;;;;;;;7.68;3.47;;;22.60;34.70;;;;;;5012103;28;20428;-67
2022/04/21 06:35:25;;;;;;;7.45;3.20;;;22.60;34.60;;;;;;5010860;28;20476;-67
2022/04/21 06:37:52;;;;;;;7.67;3.13;;;22.60;34.50;;;;;;5012290;28;20466;-67
2022/04/21 06:40:18;;;;;;;5.45;3.38;;;22.60;34.30;;;;;;5011623;28;20869;-67
2022/04/21 06:42:43;;;;;;;5.77;3.33;;;22.60;34.30;;;;;;5012065;28;20401;-67
2022/04/21 06:48:04;;;;;;;4.03;2.90;;;22.50;34.20;;;;;;5012242;28;20400;-67
2022/04/21 06:50:33;;;;;;;5.45;2.90;;;22.50;34.10;;;;;;5010262;28;20411;-67
2022/04/21 06:53:01;;;;;;;4.63;2.80;;;22.50;34.00;;;;;;5011970;28;20405;-67
2022/04/21 06:55:26;;;;;;;4.25;2.80;;;22.50;34.10;;;;;;5010434;28;20408;-66
2022/04/21 06:57:52;;;;;;;5.00;2.92;;;22.50;34.00;;;;;;4997469;28;20415;-66
2022/04/21 07:00:18;;;;;;;4.65;3.00;;;22.50;34.00;;;;;;4990567;28;20394;-67
2022/04/21 07:02:44;;;;;;;4.07;2.90;;;22.50;34.00;;;;;;4992175;28;20918;-67
2022/04/21 07:05:11;;;;;;;5.80;2.78;;;22.50;34.00;;;;;;4991674;28;20387;-67
2022/04/21 07:07:41;;;;;;;3.75;2.92;;;22.50;34.00;;;;;;4992231;28;20427;-67
2022/04/21 07:10:07;;;;;;;5.63;2.70;;;22.50;34.00;;;;;;4990715;28;20390;-67
2022/04/21 07:12:34;;;;;;;4.25;2.80;;;22.50;34.00;;;;;;4991096;28;20405;-67
2022/04/21 07:15:01;;;;;;;4.53;2.75;;;22.50;33.90;;;;;;4991745;28;20426;-67
2022/04/21 07:17:26;;;;;;;3.58;2.90;;;22.50;33.90;;;;;;4991889;28;20407;-67
2022/04/21 07:19:52;;;;;;;4.87;2.67;;;22.50;33.90;;;;;;4990678;28;20391;-67
2022/04/21 07:22:24;;;;;;;3.72;2.67;;;22.50;33.80;;;;;;4994090;28;20476;-66
2022/04/21 07:24:54;;;;;;;4.07;2.88;;;22.50;33.90;;;;;;5010793;28;20393;-67
2022/04/21 07:27:20;;;;;;;3.70;2.90;;;22.50;33.80;;;;;;5011330;28;20422;-66
2022/04/21 07:29:46;;;;;;;3.90;2.83;;;22.40;33.80;;;;;;5011572;28;20954;-67
2022/04/21 07:32:12;;;;;;;4.30;2.75;;;22.40;33.80;;;;;;5011174;28;20420;-67
2022/04/21 07:34:38;;;;;;;3.83;2.80;;;22.40;33.80;;;;;;5010939;28;20738;-67
2022/04/21 07:37:04;;;;;;;3.85;2.75;;;22.50;33.80;;;;;;5011439;28;20393;-67
2022/04/21 07:39:31;;;;;;;4.57;2.60;;;22.40;33.70;;;;;;5011202;28;20441;-66
2022/04/21 07:41:57;;;;;;;6.65;3.00;;;22.50;33.80;;;;;;5010740;28;20397;-67
2022/04/21 07:44:23;;;;;;;8.20;3.72;;;22.50;33.90;;;;;;5010622;28;20392;-68
2022/04/21 07:46:49;;;;;;;8.43;3.65;;;22.60;34.30;;;;;;5007407;28;20433;-68
2022/04/21 07:54:46;;;;;;;7.45;3.85;;;22.50;33.80;;;;;;5034463;28;20414;-66
2022/04/21 07:57:11;;;;;;;7.45;3.83;;;22.60;33.40;;;;;;5033462;28;20782;-65
2022/04/21 07:59:37;;;;;;;7.47;4.20;;;22.70;34.70;;;;;;5034833;28;20462;-69
2022/04/21 08:02:08;;;;;;;7.32;3.92;;;22.90;34.70;;;;;;5033621;28;20391;-69
2022/04/21 08:04:37;;;;;;;7.78;3.95;;;23.00;33.90;;;;;;5034394;28;20386;-69
2022/04/21 08:07:04;;;;;;;6.18;3.80;;;23.00;33.70;;;;;;5034879;28;20423;-68
2022/04/21 08:09:30;;;;;;;4.78;3.50;;;23.10;33.90;;;;;;5034321;28;20466;-69
2022/04/21 08:11:56;;;;;;;4.60;3.58;;;23.20;34.00;;;;;;5019305;28;20972;-69
2022/04/21 08:14:21;;;;;;;6.88;3.83;;;23.20;33.80;;;;;;5014229;28;20419;-69
2022/04/21 08:16:47;;;;;;;6.00;4.38;;;23.30;33.90;;;;;;5014683;28;20400;-68
2022/04/21 08:19:13;;;;;;;23.77;21.77;;;23.30;33.30;;;;;;5008331;28;20396;-68
2022/04/21 08:21:39;;;;;;;8.20;7.40;;;23.40;34.20;;;;;;5001056;28;20488;-69
2022/04/21 08:32:33;;;;;;;5.95;5.40;;;23.70;33.50;;;;;;4994655;28;20445;-68
2022/04/21 08:34:59;;;;;;;6.60;6.00;;;23.70;33.70;;;;;;4995115;28;20481;-66
2022/04/21 08:37:25;;;;;;;6.30;5.70;;;23.80;33.70;;;;;;4994596;28;20406;-66
2022/04/21 08:39:51;;;;;;;6.20;5.60;;;23.80;33.70;;;;;;4994819;28;20397;-66
2022/04/21 08:42:18;;;;;;;13.55;12.32;;;23.90;33.50;;;;;;4994296;28;20398;-65
2022/04/21 08:44:44;;;;;;;58.30;53.90;;;23.90;33.30;;;;;;4994340;28;20878;-67
2022/04/21 08:47:14;;;;;;;27.95;25.67;;;24.00;34.00;;;;;;4994461;28;20406;-67
2022/04/21 08:49:42;;;;;;;18.80;17.10;;;24.10;34.10;;;;;;4994572;28;20484;-63
2022/04/21 08:52:11;;;;;;;16.55;15.15;;;24.10;33.50;;;;;;4994505;28;20422;-68
2022/04/21 08:54:37;;;;;;;16.27;14.73;;;24.20;33.40;;;;;;4993797;28;20865;-64
2022/04/21 08:57:02;;;;;;;14.20;13.00;;;24.20;33.50;;;;;;4994446;28;20402;-63
2022/04/21 08:59:28;;;;;;;13.52;12.52;;;24.20;33.80;;;;;;5004406;28;20404;-65
2022/04/21 09:01:58;;;;;;;24.80;22.80;;;24.20;33.40;;;;;;5012407;28;20436;-64
2022/04/21 09:04:26;;;;;;;18.33;16.92;;;24.40;35.30;;;;;;5007308;28;20407;-65
2022/04/21 09:06:52;;;;;;;13.88;12.77;;;24.40;34.30;;;;;;4992775;28;20395;-65
2022/04/21 09:09:22;;;;;;;13.10;12.10;;;24.50;33.80;;;;;;4994325;28;20383;-64
2022/04/21 09:11:52;;;;;;;12.05;11.00;;;24.50;33.80;;;;;;4993447;28;20431;-64
2022/04/21 09:14:20;;;;;;;11.50;10.40;;;24.60;33.70;;;;;;4993040;28;20395;-64
2022/04/21 09:16:46;;;;;;;10.55;9.63;;;24.60;33.70;;;;;;5000155;28;20402;-64
2022/04/21 09:19:15;;;;;;;10.13;9.23;;;24.70;33.70;;;;;;4994016;28;20391;-64
2022/04/21 09:21:41;;;;;;;10.38;9.48;;;24.80;33.80;;;;;;4992632;28;20422;-65
2022/04/21 09:24:24;;;;;;;9.85;8.95;;;24.80;33.90;;;;;;5010650;28;20475;-64
2022/04/21 09:26:51;;;;;;;10.02;9.13;;;25.00;34.10;;;;;;5003087;28;20436;-64
2022/04/21 09:29:30;;;;;;;48.63;44.92;;;25.00;34.10;;;;;;4993674;28;20549;-64
2022/04/21 09:32:04;;;;;;;40.70;37.70;;;25.10;34.40;;;;;;4991698;28;20468;-64
2022/04/21 09:34:31;;;;;;;24.08;22.08;;;25.10;33.60;;;;;;4991441;28;20448;-64
2022/04/21 09:36:57;;;;;;;18.17;16.67;;;25.10;33.40;;;;;;4993331;28;20395;-65
2022/04/21 09:39:24;;;;;;;19.93;18.17;;;25.30;33.30;;;;;;4992254;28;20402;-65
2022/04/21 09:41:55;;;;;;;19.03;17.43;;;25.40;33.20;;;;;;4992514;28;20465;-66
2022/04/21 09:47:20;;;;;;;15.05;13.82;;;25.50;33.20;;;;;;5013235;28;20388;-64
2022/04/21 09:49:47;;;;;;;14.13;12.82;;;25.50;33.10;;;;;;5012961;28;20464;-64
2022/04/21 09:52:24;;;;;;;11.82;10.73;;;25.50;33.00;;;;;;5013002;28;20416;-66
2022/04/21 09:54:50;;;;;;;11.68;10.57;;;25.30;32.70;;;;;;5012767;28;20404;-64
2022/04/21 09:57:31;;;;;;;10.63;9.43;;;25.30;33.00;;;;;;4997979;28;20415;-65
2022/04/21 09:59:58;;;;;;;9.90;9.10;;;25.20;32.80;;;;;;4993121;28;20387;-65
2022/04/21 10:02:27;;;;;;;9.02;8.23;;;25.30;33.10;;;;;;4992732;28;20881;-65
2022/04/21 10:04:55;;;;;;;8.10;7.50;;;25.30;33.10;;;;;;4991820;28;20402;-65
2022/04/21 10:07:21;;;;;;;8.20;7.50;;;25.30;33.10;;;;;;4993010;28;20430;-65
2022/04/21 10:09:49;;;;;;;7.97;7.28;;;25.30;33.20;;;;;;4992891;28;20393;-66
2022/04/21 10:12:16;;;;;;;7.43;6.82;;;25.30;33.10;;;;;;4992792;28;20426;-64
2022/04/21 10:14:42;;;;;;;6.90;6.30;;;25.40;33.30;;;;;;4992115;28;20377;-65
2022/04/21 10:17:10;;;;;;;6.45;5.95;;;25.40;33.10;;;;;;4992899;28;20401;-64
2022/04/21 10:19:36;;;;;;;6.30;5.73;;;25.50;33.00;;;;;;4992604;28;20747;-65
2022/04/21 10:22:05;;;;;;;5.95;5.30;;;25.50;33.00;;;;;;4992828;28;20399;-65
2022/04/21 10:24:32;;;;;;;5.30;4.80;;;25.60;33.00;;;;;;4992081;28;20942;-65
2022/04/21 10:26:58;;;;;;;4.90;4.50;;;25.60;32.90;;;;;;4992671;28;20453;-65
2022/04/21 10:29:27;;;;;;;5.30;4.78;;;25.60;32.90;;;;;;4992557;28;20398;-65
2022/04/21 10:32:03;;;;;;;4.80;4.40;;;25.60;32.80;;;;;;4992284;28;20818;-65
2022/04/21 10:34:38;;;;;;;4.35;3.95;;;25.70;32.90;;;;;;4992029;28;20398;-64
2022/04/21 10:37:11;;;;;;;4.50;4.10;;;25.80;32.80;;;;;;4991704;28;20401;-64
2022/04/21 10:39:38;;;;;;;4.20;3.80;;;25.80;32.70;;;;;;4992205;28;20402;-64
2022/04/21 10:42:14;;;;;;;3.88;3.47;;;25.80;32.60;;;;;;4992227;28;20390;-64
2022/04/21 10:44:49;;;;;;;3.90;3.60;;;25.90;32.60;;;;;;4991756;28;20402;-64
2022/04/21 10:47:30;;;;;;;4.18;3.47;;;25.90;32.50;;;;;;4992287;28;20409;-65
2022/04/21 10:49:58;;;;;;;3.90;3.50;;;26.00;32.50;;;;;;4991792;28;20466;-65
2022/04/21 10:57:55;;;;;;;3.83;3.35;;;26.10;32.20;;;;;;4992386;28;20497;-64
2022/04/21 11:00:30;;;;;;;3.65;3.25;;;26.10;32.20;;;;;;4991592;28;20433;-65
2022/04/21 11:03:03;;;;;;;3.50;3.00;;;26.20;32.20;;;;;;4999707;28;20397;-66
2022/04/21 11:05:33;;;;;;;3.40;3.10;;;26.20;32.10;;;;;;5000265;28;20389;-66
2022/04/21 11:08:01;;;;;;;4.88;3.08;;;26.20;32.00;;;;;;4991312;28;20471;-65
2022/04/21 11:10:28;;;;;;;3.38;3.00;;;26.20;32.10;;;;;;4995941;28;20397;-65
2022/04/21 11:12:54;;;;;;;3.35;2.97;;;26.30;32.20;;;;;;4999293;28;20403;-66
2022/04/21 11:15:36;;;;;;;3.20;2.85;;;26.30;32.10;;;;;;5001502;28;20389;-65
2022/04/21 11:18:07;;;;;;;3.33;3.03;;;26.40;32.60;;;;;;4999927;28;20400;-66
2022/04/21 11:20:33;;;;;;;3.90;2.80;;;26.40;32.00;;;;;;4998797;28;20462;-65
2022/04/21 11:22:59;;;;;;;4.50;3.20;;;26.40;31.60;;;;;;5000649;28;20488;-66
2022/04/21 11:25:25;;;;;;;4.80;3.17;;;26.40;31.60;;;;;;4999662;28;20431;-66
2022/04/21 11:27:51;;;;;;;4.65;3.40;;;26.50;32.10;;;;;;4999080;28;20451;-68
2022/04/21 11:30:18;;;;;;;6.00;3.10;;;26.50;31.50;;;;;;5000603;28;20391;-67
2022/04/21 11:32:53;;;;;;;4.57;3.20;;;26.40;31.60;;;;;;5005541;28;20413;-68
2022/04/21 11:35:22;;;;;;;3.83;2.90;;;26.30;31.70;;;;;;5006017;28;20812;-66
2022/04/21 11:37:59;;;;;;;4.40;2.92;;;26.20;31.70;;;;;;5005112;28;20396;-67
2022/04/21 11:40:29;;;;;;;5.50;3.30;;;26.10;32.00;;;;;;4991679;28;20874;-68
2022/04/21 11:42:57;;;;;;;3.43;3.10;;;26.10;32.00;;;;;;5020982;28;20422;-68
2022/04/21 11:45:22;;;;;;;4.22;3.17;;;26.00;32.00;;;;;;5001713;28;20389;-69
2022/04/21 11:47:48;;;;;;;5.47;3.20;;;25.90;31.90;;;;;;5001218;28;20806;-68
2022/04/21 11:50:25;;;;;;;3.53;2.80;;;25.90;32.10;;;;;;5001669;28;20377;-67
2022/04/21 11:52:54;;;;;;;3.23;2.93;;;25.80;32.00;;;;;;5000780;28;20439;-68
2022/04/21 11:55:25;;;;;;;5.03;2.80;;;25.80;32.10;;;;;;4999431;28;20406;-68
2022/04/21 11:57:51;;;;;;;4.43;3.05;;;25.80;32.00;;;;;;4998911;28;20397;-68
2022/04/21 12:06:27;;;;;;;3.60;3.30;;;25.80;32.00;;;;;;5000951;28;20447;-67
2022/04/21 12:08:37;;;;;;;4.68;2.67;;;25.70;31.90;;;;;;4998578;28;20532;-68
2022/04/21 12:11:09;;;;;;;4.80;2.90;;;25.70;31.80;;;;;;5000132;28;20503;-68
2022/04/21 12:13:35;;;;;;;3.58;2.92;;;25.70;31.90;;;;;;5001130;28;20397;-68
2022/04/21 12:16:01;;;;;;;6.10;3.17;;;25.60;31.80;;;;;;4999400;28;20405;-68
2022/04/21 12:18:26;;;;;;;4.53;2.92;;;25.50;31.70;;;;;;4999266;28;20393;-67
2022/04/21 12:20:55;;;;;;;3.90;2.87;;;25.60;31.80;;;;;;5000672;28;20962;-68
2022/04/21 12:23:25;;;;;;;3.37;2.97;;;25.60;31.80;;;;;;4997941;28;21165;-67
2022/04/21 12:25:51;;;;;;;4.80;2.83;;;25.60;31.80;;;;;;4999124;28;20397;-67
2022/04/21 12:28:17;;;;;;;4.05;2.70;;;25.50;31.70;;;;;;5000689;28;20423;-68
2022/04/21 12:30:42;;;;;;;4.70;2.63;;;25.50;31.70;;;;;;4999176;28;20497;-68
2022/04/21 12:33:08;;;;;;;3.10;2.80;;;25.50;31.70;;;;;;4992508;28;20755;-68
2022/04/21 12:35:49;;;;;;;6.43;2.70;;;25.50;31.60;;;;;;4991264;28;20476;-67
2022/04/21 12:41:02;;;;;;;6.03;2.47;;;25.50;31.60;;;;;;5002964;28;20433;-68
2022/04/21 12:43:30;;;;;;;5.40;2.25;;;25.70;31.20;;;;;;5002455;28;20396;-67
2022/04/21 12:45:59;;;;;;;2.90;2.42;;;25.60;30.60;;;;;;5002940;28;20393;-68
2022/04/21 12:48:27;;;;;;;4.35;2.40;;;25.60;30.90;;;;;;5003112;28;20798;-68
2022/04/21 12:50:56;;;;;;;4.40;2.43;;;25.60;31.20;;;;;;5001466;28;20410;-68
2022/04/21 12:53:26;;;;;;;3.40;2.40;;;25.60;31.10;;;;;;5002552;28;20480;-67
2022/04/21 12:55:52;;;;;;;3.03;2.50;;;25.50;31.20;;;;;;5003794;28;20499;-68
2022/04/21 12:58:29;;;;;;;4.63;2.42;;;25.50;31.10;;;;;;5001946;28;20510;-67
2022/04/21 13:00:55;;;;;;;2.80;2.60;;;25.50;31.10;;;;;;5001429;28;21050;-69
2022/04/21 13:03:20;;;;;;;2.90;2.70;;;25.50;31.10;;;;;;5003434;28;20412;-68
2022/04/21 13:05:54;;;;;;;2.45;2.25;;;25.50;31.10;;;;;;5003347;28;20394;-67
2022/04/21 13:08:22;;;;;;;3.47;2.47;;;25.50;31.20;;;;;;5001436;28;20390;-68
2022/04/21 13:10:49;;;;;;;4.78;2.67;;;25.40;31.00;;;;;;5002072;28;20445;-68
2022/04/21 13:13:14;;;;;;;3.30;2.80;;;25.40;31.10;;;;;;5003321;28;20402;-67
2022/04/21 13:15:40;;;;;;;7.82;2.40;;;25.40;31.00;;;;;;4997689;28;20395;-65
2022/04/21 13:18:06;;;;;;;15.67;3.20;;;25.30;31.20;;;;;;4993485;28;20540;-67
2022/04/21 13:23:16;;;;;;;10.85;4.00;;;25.10;30.40;;;;;;5001807;28;20402;-67
2022/04/21 13:25:42;;;;;;;7.70;3.63;;;25.10;30.00;;;;;;5001960;28;20392;-66
2022/04/21 13:28:08;;;;;;;7.65;3.40;;;25.10;29.70;;;;;;5003858;28;20404;-67
2022/04/21 13:30:34;;;;;;;6.70;3.10;;;25.10;29.70;;;;;;5002583;28;20447;-66
2022/04/21 13:35:44;;;;;;;4.85;2.80;;;25.20;29.80;;;;;;5003157;28;20500;-65
2022/04/21 13:38:10;;;;;;;4.82;2.72;;;25.20;30.00;;;;;;5002723;28;20401;-66
2022/04/21 13:40:36;;;;;;;5.33;2.50;;;25.30;30.20;;;;;;5002040;28;20448;-66
2022/04/21 13:43:02;;;;;;;4.35;2.65;;;25.20;30.20;;;;;;5009394;28;20411;-65
2022/04/21 13:45:28;;;;;;;3.47;2.67;;;25.30;30.30;;;;;;5000748;28;20958;-66
2022/04/21 13:47:56;;;;;;;3.78;2.30;;;25.30;30.40;;;;;;5005053;28;20859;-66
2022/04/21 13:50:21;;;;;;;4.47;2.67;;;25.30;30.50;;;;;;5003609;28;20390;-66